sensor_id;sensor_type;location;lat;lon;timestamp;P1;durP1;ratioP1;P2;durP2;ratioP2
1378;SDS011;683;48.738;9.226;2022-10-28T00:01:19;5.90;;;4.90;;
1378;SDS011;683;48.738;9.226;2022-10-28T00:03:49;10.20;;;5.80;;
1378;SDS011;683;48.738;9.226;2022-10-28T00:06:19;21.37;;;6.47;;
1378;SDS011;683;48.738;9.226;2022-10-28T00:08:49;7.30;;;5.77;;
1378;SDS011;683;48.738;9.226;2022-10-28T00:11:18;7.83;;;5.40;;
1378;SDS011;683;48.738;9.226;2022-10-28T00:13:48;7.40;;;5.97;;
1378;SDS011;683;48.738;9.226;2022-10-28T00:16:19;9.37;;;5.37;;
1378;SDS011;683;48.738;9.226;2022-10-28T00:18:48;8.87;;;4.70;;
1378;SDS011;683;48.738;9.226;2022-10-28T00:21:19;9.87;;;5.87;;
1378;SDS011;683;48.738;9.226;2022-10-28T00:23:48;14.60;;;6.27;;
1378;SDS011;683;48.738;9.226;2022-10-28T00:26:17;8.33;;;5.37;;
1378;SDS011;683;48.738;9.226;2022-10-28T00:28:46;8.70;;;5.77;;
1378;SDS011;683;48.738;9.226;2022-10-28T00:31:17;7.93;;;5.70;;
1378;SDS011;683;48.738;9.226;2022-10-28T00:33:46;9.10;;;5.33;;
1378;SDS011;683;48.738;9.226;2022-10-28T00:36:15;8.47;;;4.97;;
1378;SDS011;683;48.738;9.226;2022-10-28T00:38:44;10.03;;;5.90;;
1378;SDS011;683;48.738;9.226;2022-10-28T00:41:14;10.47;;;5.23;;
1378;SDS011;683;48.738;9.226;2022-10-28T00:43:45;20.97;;;7.37;;
1378;SDS011;683;48.738;9.226;2022-10-28T00:46:19;11.07;;;6.87;;
1378;SDS011;683;48.738;9.226;2022-10-28T00:48:54;6.60;;;5.27;;
1378;SDS011;683;48.738;9.226;2022-10-28T00:51:26;9.30;;;6.50;;
1378;SDS011;683;48.738;9.226;2022-10-28T00:53:55;6.77;;;6.13;;
1378;SDS011;683;48.738;9.226;2022-10-28T00:56:25;8.40;;;6.10;;
1378;SDS011;683;48.738;9.226;2022-10-28T00:58:56;12.57;;;6.20;;
1378;SDS011;683;48.738;9.226;2022-10-28T01:01:29;9.87;;;5.97;;
1378;SDS011;683;48.738;9.226;2022-10-28T01:03:57;8.87;;;6.10;;
1378;SDS011;683;48.738;9.226;2022-10-28T01:06:26;9.33;;;5.30;;
1378;SDS011;683;48.738;9.226;2022-10-28T01:08:55;14.93;;;7.23;;
1378;SDS011;683;48.738;9.226;2022-10-28T01:11:28;9.57;;;7.30;;
1378;SDS011;683;48.738;9.226;2022-10-28T01:17:11;6.70;;;5.27;;
1378;SDS011;683;48.738;9.226;2022-10-28T01:20:05;19.50;;;6.33;;
1378;SDS011;683;48.738;9.226;2022-10-28T01:22:59;10.50;;;7.27;;
1378;SDS011;683;48.738;9.226;2022-10-28T01:25:45;8.20;;;5.87;;
1378;SDS011;683;48.738;9.226;2022-10-28T01:28:41;8.27;;;5.53;;
1378;SDS011;683;48.738;9.226;2022-10-28T01:31:30;8.63;;;5.60;;
1378;SDS011;683;48.738;9.226;2022-10-28T01:34:07;10.47;;;5.67;;
1378;SDS011;683;48.738;9.226;2022-10-28T01:36:41;12.33;;;6.10;;
1378;SDS011;683;48.738;9.226;2022-10-28T01:39:22;10.90;;;6.63;;
1378;SDS011;683;48.738;9.226;2022-10-28T01:41:59;10.57;;;5.93;;
1378;SDS011;683;48.738;9.226;2022-10-28T01:44:37;10.40;;;5.90;;
1378;SDS011;683;48.738;9.226;2022-10-28T01:47:13;12.20;;;5.90;;
1378;SDS011;683;48.738;9.226;2022-10-28T01:49:46;5.47;;;4.97;;
1378;SDS011;683;48.738;9.226;2022-10-28T01:52:19;8.40;;;5.77;;
1378;SDS011;683;48.738;9.226;2022-10-28T01:54:52;12.20;;;6.80;;
1378;SDS011;683;48.738;9.226;2022-10-28T01:57:24;11.00;;;6.67;;
1378;SDS011;683;48.738;9.226;2022-10-28T01:59:54;13.07;;;6.60;;
1378;SDS011;683;48.738;9.226;2022-10-28T02:02:24;11.17;;;5.90;;
1378;SDS011;683;48.738;9.226;2022-10-28T02:05:02;12.53;;;7.27;;
1378;SDS011;683;48.738;9.226;2022-10-28T02:07:31;7.10;;;5.90;;
1378;SDS011;683;48.738;9.226;2022-10-28T02:10:00;8.60;;;5.40;;
1378;SDS011;683;48.738;9.226;2022-10-28T02:12:34;10.47;;;6.93;;
1378;SDS011;683;48.738;9.226;2022-10-28T02:20:50;8.70;;;6.30;;
1378;SDS011;683;48.738;9.226;2022-10-28T02:23:23;10.60;;;6.73;;
1378;SDS011;683;48.738;9.226;2022-10-28T02:26:00;8.37;;;6.47;;
1378;SDS011;683;48.738;9.226;2022-10-28T02:28:35;10.90;;;5.63;;
1378;SDS011;683;48.738;9.226;2022-10-28T02:31:08;11.87;;;6.37;;
1378;SDS011;683;48.738;9.226;2022-10-28T02:33:45;9.13;;;6.60;;
1378;SDS011;683;48.738;9.226;2022-10-28T02:36:18;13.47;;;5.97;;
1378;SDS011;683;48.738;9.226;2022-10-28T02:38:49;8.50;;;5.57;;
1378;SDS011;683;48.738;9.226;2022-10-28T02:41:20;8.33;;;5.80;;
1378;SDS011;683;48.738;9.226;2022-10-28T02:43:53;6.80;;;5.00;;
1378;SDS011;683;48.738;9.226;2022-10-28T02:46:23;6.63;;;5.20;;
1378;SDS011;683;48.738;9.226;2022-10-28T02:48:56;9.97;;;6.10;;
1378;SDS011;683;48.738;9.226;2022-10-28T02:51:28;10.00;;;6.33;;
1378;SDS011;683;48.738;9.226;2022-10-28T02:54:01;12.23;;;5.80;;
1378;SDS011;683;48.738;9.226;2022-10-28T02:56:34;8.70;;;5.87;;
1378;SDS011;683;48.738;9.226;2022-10-28T02:59:07;11.23;;;6.40;;
1378;SDS011;683;48.738;9.226;2022-10-28T03:01:37;14.70;;;7.13;;
1378;SDS011;683;48.738;9.226;2022-10-28T03:04:06;11.33;;;6.50;;
1378;SDS011;683;48.738;9.226;2022-10-28T03:06:34;18.63;;;7.67;;
1378;SDS011;683;48.738;9.226;2022-10-28T03:09:02;9.27;;;6.37;;
1378;SDS011;683;48.738;9.226;2022-10-28T03:11:31;13.60;;;6.90;;
1378;SDS011;683;48.738;9.226;2022-10-28T03:13:59;9.83;;;5.87;;
1378;SDS011;683;48.738;9.226;2022-10-28T03:16:27;12.10;;;5.53;;
1378;SDS011;683;48.738;9.226;2022-10-28T03:18:56;8.80;;;5.90;;
1378;SDS011;683;48.738;9.226;2022-10-28T03:21:25;8.53;;;5.90;;
1378;SDS011;683;48.738;9.226;2022-10-28T03:23:53;18.53;;;6.97;;
1378;SDS011;683;48.738;9.226;2022-10-28T03:26:22;13.03;;;7.47;;
1378;SDS011;683;48.738;9.226;2022-10-28T03:28:49;9.93;;;5.93;;
1378;SDS011;683;48.738;9.226;2022-10-28T03:31:17;14.27;;;6.93;;
1378;SDS011;683;48.738;9.226;2022-10-28T03:33:45;13.00;;;5.70;;
1378;SDS011;683;48.738;9.226;2022-10-28T03:36:13;12.43;;;6.10;;
1378;SDS011;683;48.738;9.226;2022-10-28T03:38:42;12.23;;;6.10;;
1378;SDS011;683;48.738;9.226;2022-10-28T03:41:09;6.20;;;5.50;;
1378;SDS011;683;48.738;9.226;2022-10-28T03:43:37;8.77;;;4.50;;
1378;SDS011;683;48.738;9.226;2022-10-28T03:46:05;10.40;;;6.17;;
1378;SDS011;683;48.738;9.226;2022-10-28T03:48:33;12.90;;;5.90;;
1378;SDS011;683;48.738;9.226;2022-10-28T03:51:00;8.63;;;6.07;;
1378;SDS011;683;48.738;9.226;2022-10-28T03:53:28;7.33;;;5.80;;
1378;SDS011;683;48.738;9.226;2022-10-28T03:55:58;7.80;;;5.23;;
1378;SDS011;683;48.738;9.226;2022-10-28T03:58:28;9.23;;;6.10;;
1378;SDS011;683;48.738;9.226;2022-10-28T04:00:56;8.83;;;5.70;;
1378;SDS011;683;48.738;9.226;2022-10-28T04:03:25;9.13;;;5.23;;
1378;SDS011;683;48.738;9.226;2022-10-28T04:05:53;8.20;;;4.90;;
1378;SDS011;683;48.738;9.226;2022-10-28T04:08:21;14.70;;;5.73;;
1378;SDS011;683;48.738;9.226;2022-10-28T04:10:49;7.57;;;6.00;;
1378;SDS011;683;48.738;9.226;2022-10-28T04:13:18;14.93;;;7.47;;
1378;SDS011;683;48.738;9.226;2022-10-28T04:15:46;7.53;;;5.50;;
1378;SDS011;683;48.738;9.226;2022-10-28T04:18:14;8.43;;;5.50;;
1378;SDS011;683;48.738;9.226;2022-10-28T04:20:43;5.97;;;4.70;;
1378;SDS011;683;48.738;9.226;2022-10-28T04:23:13;10.77;;;5.33;;
1378;SDS011;683;48.738;9.226;2022-10-28T04:25:42;7.80;;;6.30;;
1378;SDS011;683;48.738;9.226;2022-10-28T04:28:10;12.63;;;5.50;;
1378;SDS011;683;48.738;9.226;2022-10-28T04:30:39;11.33;;;6.27;;
1378;SDS011;683;48.738;9.226;2022-10-28T04:33:08;12.27;;;6.20;;
1378;SDS011;683;48.738;9.226;2022-10-28T04:35:38;9.07;;;4.93;;
1378;SDS011;683;48.738;9.226;2022-10-28T04:38:07;7.67;;;5.80;;
1378;SDS011;683;48.738;9.226;2022-10-28T04:40:36;12.27;;;5.87;;
1378;SDS011;683;48.738;9.226;2022-10-28T04:43:04;9.20;;;5.77;;
1378;SDS011;683;48.738;9.226;2022-10-28T04:45:32;6.10;;;5.30;;
1378;SDS011;683;48.738;9.226;2022-10-28T04:48:01;6.53;;;5.77;;
1378;SDS011;683;48.738;9.226;2022-10-28T04:50:29;6.70;;;5.70;;
1378;SDS011;683;48.738;9.226;2022-10-28T04:52:58;12.03;;;6.43;;
1378;SDS011;683;48.738;9.226;2022-10-28T04:55:26;8.93;;;7.00;;
1378;SDS011;683;48.738;9.226;2022-10-28T04:57:55;10.70;;;7.03;;
1378;SDS011;683;48.738;9.226;2022-10-28T05:00:26;6.77;;;6.10;;
1378;SDS011;683;48.738;9.226;2022-10-28T05:02:55;10.00;;;5.90;;
1378;SDS011;683;48.738;9.226;2022-10-28T05:05:27;9.80;;;6.20;;
1378;SDS011;683;48.738;9.226;2022-10-28T05:07:55;9.27;;;7.27;;
1378;SDS011;683;48.738;9.226;2022-10-28T05:10:23;8.90;;;6.90;;
1378;SDS011;683;48.738;9.226;2022-10-28T05:12:51;13.37;;;6.07;;
1378;SDS011;683;48.738;9.226;2022-10-28T05:15:19;14.47;;;7.60;;
1378;SDS011;683;48.738;9.226;2022-10-28T05:17:47;9.47;;;7.13;;
1378;SDS011;683;48.738;9.226;2022-10-28T05:20:16;10.80;;;7.37;;
1378;SDS011;683;48.738;9.226;2022-10-28T05:22:46;10.53;;;7.10;;
1378;SDS011;683;48.738;9.226;2022-10-28T05:25:14;10.10;;;6.10;;
1378;SDS011;683;48.738;9.226;2022-10-28T05:27:43;11.90;;;6.13;;
1378;SDS011;683;48.738;9.226;2022-10-28T05:30:11;12.53;;;6.20;;
1378;SDS011;683;48.738;9.226;2022-10-28T05:32:39;11.80;;;5.73;;
1378;SDS011;683;48.738;9.226;2022-10-28T05:35:07;16.13;;;6.83;;
1378;SDS011;683;48.738;9.226;2022-10-28T05:37:36;8.43;;;5.53;;
1378;SDS011;683;48.738;9.226;2022-10-28T05:40:08;13.63;;;5.60;;
1378;SDS011;683;48.738;9.226;2022-10-28T05:42:39;11.60;;;6.83;;
1378;SDS011;683;48.738;9.226;2022-10-28T05:45:08;10.50;;;6.50;;
1378;SDS011;683;48.738;9.226;2022-10-28T05:47:40;9.23;;;7.00;;
1378;SDS011;683;48.738;9.226;2022-10-28T05:50:09;8.20;;;6.07;;
1378;SDS011;683;48.738;9.226;2022-10-28T05:52:37;9.87;;;7.30;;
1378;SDS011;683;48.738;9.226;2022-10-28T05:55:05;8.60;;;5.80;;
1378;SDS011;683;48.738;9.226;2022-10-28T05:57:35;9.73;;;6.13;;
1378;SDS011;683;48.738;9.226;2022-10-28T06:00:03;11.87;;;8.20;;
1378;SDS011;683;48.738;9.226;2022-10-28T06:02:38;14.37;;;7.10;;
1378;SDS011;683;48.738;9.226;2022-10-28T06:05:06;16.07;;;6.60;;
1378;SDS011;683;48.738;9.226;2022-10-28T06:07:34;11.50;;;7.63;;
1378;SDS011;683;48.738;9.226;2022-10-28T06:10:02;11.70;;;7.53;;
1378;SDS011;683;48.738;9.226;2022-10-28T06:12:33;11.13;;;5.67;;
1378;SDS011;683;48.738;9.226;2022-10-28T06:15:01;6.70;;;5.83;;
1378;SDS011;683;48.738;9.226;2022-10-28T06:17:30;10.27;;;5.70;;
1378;SDS011;683;48.738;9.226;2022-10-28T06:19:58;7.70;;;5.87;;
1378;SDS011;683;48.738;9.226;2022-10-28T06:22:25;11.93;;;5.80;;
1378;SDS011;683;48.738;9.226;2022-10-28T06:24:53;11.57;;;6.77;;
1378;SDS011;683;48.738;9.226;2022-10-28T06:27:22;14.60;;;7.40;;
1378;SDS011;683;48.738;9.226;2022-10-28T06:29:51;13.57;;;7.00;;
1378;SDS011;683;48.738;9.226;2022-10-28T06:32:19;9.83;;;6.80;;
1378;SDS011;683;48.738;9.226;2022-10-28T06:34:47;19.53;;;6.33;;
1378;SDS011;683;48.738;9.226;2022-10-28T06:37:14;13.57;;;6.53;;
1378;SDS011;683;48.738;9.226;2022-10-28T06:39:42;18.03;;;7.13;;
1378;SDS011;683;48.738;9.226;2022-10-28T06:42:10;13.90;;;6.77;;
1378;SDS011;683;48.738;9.226;2022-10-28T06:44:37;20.10;;;6.80;;
1378;SDS011;683;48.738;9.226;2022-10-28T06:47:07;14.00;;;6.50;;
1378;SDS011;683;48.738;9.226;2022-10-28T06:49:34;12.30;;;5.80;;
1378;SDS011;683;48.738;9.226;2022-10-28T06:52:02;13.00;;;5.47;;
1378;SDS011;683;48.738;9.226;2022-10-28T06:54:30;14.80;;;6.10;;
1378;SDS011;683;48.738;9.226;2022-10-28T06:56:58;9.97;;;6.13;;
1378;SDS011;683;48.738;9.226;2022-10-28T06:59:25;13.87;;;6.00;;
1378;SDS011;683;48.738;9.226;2022-10-28T07:01:53;11.53;;;6.27;;
1378;SDS011;683;48.738;9.226;2022-10-28T07:04:22;6.80;;;5.70;;
1378;SDS011;683;48.738;9.226;2022-10-28T07:06:53;11.90;;;5.70;;
1378;SDS011;683;48.738;9.226;2022-10-28T07:09:21;14.00;;;6.50;;
1378;SDS011;683;48.738;9.226;2022-10-28T07:11:49;6.30;;;5.70;;
1378;SDS011;683;48.738;9.226;2022-10-28T07:14:17;8.23;;;5.50;;
1378;SDS011;683;48.738;9.226;2022-10-28T07:16:45;10.43;;;6.10;;
1378;SDS011;683;48.738;9.226;2022-10-28T07:19:12;7.50;;;5.83;;
1378;SDS011;683;48.738;9.226;2022-10-28T07:21:45;12.10;;;5.50;;
1378;SDS011;683;48.738;9.226;2022-10-28T07:24:13;14.80;;;5.87;;
1378;SDS011;683;48.738;9.226;2022-10-28T07:26:41;8.00;;;5.13;;
1378;SDS011;683;48.738;9.226;2022-10-28T07:29:09;10.40;;;5.83;;
1378;SDS011;683;48.738;9.226;2022-10-28T07:31:36;9.70;;;5.87;;
1378;SDS011;683;48.738;9.226;2022-10-28T07:34:04;13.60;;;5.80;;
1378;SDS011;683;48.738;9.226;2022-10-28T07:36:32;8.90;;;5.40;;
1378;SDS011;683;48.738;9.226;2022-10-28T07:39:01;10.87;;;6.00;;
1378;SDS011;683;48.738;9.226;2022-10-28T07:41:29;12.60;;;5.20;;
1378;SDS011;683;48.738;9.226;2022-10-28T07:43:56;8.60;;;6.23;;
1378;SDS011;683;48.738;9.226;2022-10-28T07:46:24;9.57;;;5.80;;
1378;SDS011;683;48.738;9.226;2022-10-28T07:48:52;11.57;;;5.27;;
1378;SDS011;683;48.738;9.226;2022-10-28T07:51:20;6.17;;;5.40;;
1378;SDS011;683;48.738;9.226;2022-10-28T07:53:48;9.00;;;4.60;;
1378;SDS011;683;48.738;9.226;2022-10-28T07:56:17;7.83;;;5.40;;
1378;SDS011;683;48.738;9.226;2022-10-28T07:58:44;10.00;;;4.97;;
1378;SDS011;683;48.738;9.226;2022-10-28T08:01:13;6.57;;;4.10;;
1378;SDS011;683;48.738;9.226;2022-10-28T08:03:43;9.70;;;4.13;;
1378;SDS011;683;48.738;9.226;2022-10-28T08:06:12;6.20;;;4.20;;
1378;SDS011;683;48.738;9.226;2022-10-28T08:08:42;6.90;;;4.10;;
1378;SDS011;683;48.738;9.226;2022-10-28T08:11:11;8.70;;;4.70;;
1378;SDS011;683;48.738;9.226;2022-10-28T08:13:41;4.13;;;3.73;;
1378;SDS011;683;48.738;9.226;2022-10-28T08:16:09;6.70;;;3.77;;
1378;SDS011;683;48.738;9.226;2022-10-28T08:18:37;8.17;;;4.13;;
1378;SDS011;683;48.738;9.226;2022-10-28T08:21:07;7.50;;;4.40;;
1378;SDS011;683;48.738;9.226;2022-10-28T08:23:36;12.27;;;3.73;;
1378;SDS011;683;48.738;9.226;2022-10-28T08:26:04;8.57;;;4.10;;
1378;SDS011;683;48.738;9.226;2022-10-28T08:28:32;11.63;;;4.10;;
1378;SDS011;683;48.738;9.226;2022-10-28T08:31:01;12.60;;;3.87;;
1378;SDS011;683;48.738;9.226;2022-10-28T08:33:33;6.93;;;3.77;;
1378;SDS011;683;48.738;9.226;2022-10-28T08:36:01;8.93;;;4.63;;
1378;SDS011;683;48.738;9.226;2022-10-28T08:38:29;6.40;;;3.20;;
1378;SDS011;683;48.738;9.226;2022-10-28T08:40:59;5.33;;;3.83;;
1378;SDS011;683;48.738;9.226;2022-10-28T08:43:37;3.83;;;2.80;;
1378;SDS011;683;48.738;9.226;2022-10-28T08:46:16;7.03;;;4.33;;
1378;SDS011;683;48.738;9.226;2022-10-28T08:48:53;7.43;;;3.57;;
1378;SDS011;683;48.738;9.226;2022-10-28T08:51:21;9.07;;;3.20;;
1378;SDS011;683;48.738;9.226;2022-10-28T08:53:57;3.23;;;2.80;;
1378;SDS011;683;48.738;9.226;2022-10-28T08:56:29;7.90;;;3.27;;
1378;SDS011;683;48.738;9.226;2022-10-28T08:59:01;8.27;;;4.23;;
1378;SDS011;683;48.738;9.226;2022-10-28T09:01:36;9.67;;;3.30;;
1378;SDS011;683;48.738;9.226;2022-10-28T09:04:15;9.10;;;3.93;;
1378;SDS011;683;48.738;9.226;2022-10-28T09:06:50;4.43;;;4.03;;
1378;SDS011;683;48.738;9.226;2022-10-28T09:09:18;6.63;;;4.37;;
1378;SDS011;683;48.738;9.226;2022-10-28T09:11:52;12.70;;;8.10;;
1378;SDS011;683;48.738;9.226;2022-10-28T09:14:35;7.27;;;4.47;;
1378;SDS011;683;48.738;9.226;2022-10-28T09:17:16;10.50;;;3.67;;
1378;SDS011;683;48.738;9.226;2022-10-28T09:19:46;8.63;;;4.00;;
1378;SDS011;683;48.738;9.226;2022-10-28T09:22:26;7.93;;;3.50;;
1378;SDS011;683;48.738;9.226;2022-10-28T09:25:04;13.20;;;4.43;;
1378;SDS011;683;48.738;9.226;2022-10-28T09:27:59;6.53;;;3.90;;
1378;SDS011;683;48.738;9.226;2022-10-28T09:30:41;4.60;;;3.30;;
1378;SDS011;683;48.738;9.226;2022-10-28T09:33:20;8.10;;;3.80;;
1378;SDS011;683;48.738;9.226;2022-10-28T09:36:13;7.63;;;4.10;;
1378;SDS011;683;48.738;9.226;2022-10-28T09:38:45;4.40;;;3.23;;
1378;SDS011;683;48.738;9.226;2022-10-28T09:41:14;9.13;;;4.30;;
1378;SDS011;683;48.738;9.226;2022-10-28T09:43:45;13.70;;;5.27;;
1378;SDS011;683;48.738;9.226;2022-10-28T09:46:17;7.63;;;4.20;;
1378;SDS011;683;48.738;9.226;2022-10-28T09:48:47;8.83;;;3.37;;
1378;SDS011;683;48.738;9.226;2022-10-28T09:51:21;11.63;;;7.33;;
1378;SDS011;683;48.738;9.226;2022-10-28T09:53:56;6.80;;;4.30;;
1378;SDS011;683;48.738;9.226;2022-10-28T09:56:24;6.50;;;3.03;;
1378;SDS011;683;48.738;9.226;2022-10-28T09:58:54;5.20;;;3.50;;
1378;SDS011;683;48.738;9.226;2022-10-28T10:01:24;9.70;;;3.40;;
1378;SDS011;683;48.738;9.226;2022-10-28T10:03:55;10.30;;;4.97;;
1378;SDS011;683;48.738;9.226;2022-10-28T10:06:24;12.27;;;6.83;;
1378;SDS011;683;48.738;9.226;2022-10-28T10:08:55;12.33;;;5.10;;
1378;SDS011;683;48.738;9.226;2022-10-28T10:11:25;7.10;;;4.30;;
1378;SDS011;683;48.738;9.226;2022-10-28T10:13:56;5.73;;;3.33;;
1378;SDS011;683;48.738;9.226;2022-10-28T10:16:32;8.40;;;3.70;;
1378;SDS011;683;48.738;9.226;2022-10-28T10:19:07;11.73;;;3.40;;
1378;SDS011;683;48.738;9.226;2022-10-28T10:21:40;9.53;;;4.43;;
1378;SDS011;683;48.738;9.226;2022-10-28T10:24:27;8.93;;;4.47;;
1378;SDS011;683;48.738;9.226;2022-10-28T10:26:57;9.07;;;3.93;;
1378;SDS011;683;48.738;9.226;2022-10-28T10:29:27;3.93;;;3.00;;
1378;SDS011;683;48.738;9.226;2022-10-28T10:32:02;9.77;;;4.73;;
1378;SDS011;683;48.738;9.226;2022-10-28T10:34:44;9.90;;;4.50;;
1378;SDS011;683;48.738;9.226;2022-10-28T10:37:16;10.07;;;4.17;;
1378;SDS011;683;48.738;9.226;2022-10-28T10:39:57;6.97;;;3.93;;
1378;SDS011;683;48.738;9.226;2022-10-28T10:42:28;8.07;;;4.10;;
1378;SDS011;683;48.738;9.226;2022-10-28T10:44:58;8.17;;;4.73;;
1378;SDS011;683;48.738;9.226;2022-10-28T10:47:28;7.50;;;4.33;;
1378;SDS011;683;48.738;9.226;2022-10-28T10:52:48;9.37;;;4.40;;
1378;SDS011;683;48.738;9.226;2022-10-28T10:55:19;9.63;;;4.10;;
1378;SDS011;683;48.738;9.226;2022-10-28T10:57:53;9.43;;;4.40;;
1378;SDS011;683;48.738;9.226;2022-10-28T11:00:21;9.77;;;5.10;;
1378;SDS011;683;48.738;9.226;2022-10-28T11:02:54;8.60;;;4.57;;
1378;SDS011;683;48.738;9.226;2022-10-28T11:05:24;7.50;;;4.23;;
1378;SDS011;683;48.738;9.226;2022-10-28T11:07:52;10.67;;;5.37;;
1378;SDS011;683;48.738;9.226;2022-10-28T11:10:21;11.57;;;6.17;;
1378;SDS011;683;48.738;9.226;2022-10-28T11:12:51;7.00;;;4.90;;
1378;SDS011;683;48.738;9.226;2022-10-28T11:15:22;9.00;;;6.40;;
1378;SDS011;683;48.738;9.226;2022-10-28T11:17:55;7.67;;;6.70;;
1378;SDS011;683;48.738;9.226;2022-10-28T11:20:27;10.10;;;6.30;;
1378;SDS011;683;48.738;9.226;2022-10-28T11:23:12;9.53;;;6.30;;
1378;SDS011;683;48.738;9.226;2022-10-28T11:25:51;13.70;;;7.83;;
1378;SDS011;683;48.738;9.226;2022-10-28T11:28:27;13.23;;;8.80;;
1378;SDS011;683;48.738;9.226;2022-10-28T11:34:23;9.43;;;7.17;;
1378;SDS011;683;48.738;9.226;2022-10-28T11:37:11;16.57;;;9.80;;
1378;SDS011;683;48.738;9.226;2022-10-28T11:39:48;9.33;;;6.80;;
1378;SDS011;683;48.738;9.226;2022-10-28T11:42:27;9.87;;;5.70;;
1378;SDS011;683;48.738;9.226;2022-10-28T11:45:08;13.20;;;7.37;;
1378;SDS011;683;48.738;9.226;2022-10-28T11:47:52;26.80;;;7.93;;
1378;SDS011;683;48.738;9.226;2022-10-28T11:50:34;9.27;;;5.83;;
1378;SDS011;683;48.738;9.226;2022-10-28T11:53:19;8.70;;;6.07;;
1378;SDS011;683;48.738;9.226;2022-10-28T11:56:10;14.30;;;10.83;;
1378;SDS011;683;48.738;9.226;2022-10-28T11:58:54;9.57;;;6.47;;
1378;SDS011;683;48.738;9.226;2022-10-28T12:01:47;11.63;;;6.27;;
1378;SDS011;683;48.738;9.226;2022-10-28T12:04:35;7.93;;;4.03;;
1378;SDS011;683;48.738;9.226;2022-10-28T12:07:20;5.93;;;3.47;;
1378;SDS011;683;48.738;9.226;2022-10-28T12:10:10;6.23;;;3.53;;
1378;SDS011;683;48.738;9.226;2022-10-28T12:12:49;6.60;;;3.80;;
1378;SDS011;683;48.738;9.226;2022-10-28T12:15:23;8.70;;;4.57;;
1378;SDS011;683;48.738;9.226;2022-10-28T12:17:59;8.23;;;4.50;;
1378;SDS011;683;48.738;9.226;2022-10-28T12:20:32;12.33;;;5.00;;
1378;SDS011;683;48.738;9.226;2022-10-28T12:23:07;8.10;;;4.60;;
1378;SDS011;683;48.738;9.226;2022-10-28T12:25:41;7.73;;;3.87;;
1378;SDS011;683;48.738;9.226;2022-10-28T12:28:14;8.93;;;4.60;;
1378;SDS011;683;48.738;9.226;2022-10-28T12:30:45;6.57;;;3.77;;
1378;SDS011;683;48.738;9.226;2022-10-28T12:33:16;11.40;;;4.47;;
1378;SDS011;683;48.738;9.226;2022-10-28T12:35:47;6.57;;;3.67;;
1378;SDS011;683;48.738;9.226;2022-10-28T12:38:22;8.47;;;4.40;;
1378;SDS011;683;48.738;9.226;2022-10-28T12:41:01;8.20;;;5.17;;
1378;SDS011;683;48.738;9.226;2022-10-28T12:43:34;8.50;;;4.13;;
1378;SDS011;683;48.738;9.226;2022-10-28T12:46:06;6.47;;;3.40;;
1378;SDS011;683;48.738;9.226;2022-10-28T12:48:46;9.33;;;3.80;;
1378;SDS011;683;48.738;9.226;2022-10-28T12:51:18;8.73;;;4.20;;
1378;SDS011;683;48.738;9.226;2022-10-28T12:53:52;8.20;;;4.17;;
1378;SDS011;683;48.738;9.226;2022-10-28T12:56:27;8.53;;;4.03;;
1378;SDS011;683;48.738;9.226;2022-10-28T12:58:59;9.33;;;4.20;;
1378;SDS011;683;48.738;9.226;2022-10-28T13:01:32;11.90;;;4.80;;
1378;SDS011;683;48.738;9.226;2022-10-28T13:04:01;6.23;;;4.33;;
1378;SDS011;683;48.738;9.226;2022-10-28T13:06:34;6.67;;;3.97;;
1378;SDS011;683;48.738;9.226;2022-10-28T13:09:23;7.80;;;3.70;;
1378;SDS011;683;48.738;9.226;2022-10-28T13:15:10;3.77;;;3.00;;
1378;SDS011;683;48.738;9.226;2022-10-28T13:18:00;7.00;;;4.53;;
1378;SDS011;683;48.738;9.226;2022-10-28T13:20:45;8.07;;;4.10;;
1378;SDS011;683;48.738;9.226;2022-10-28T13:23:23;11.23;;;4.20;;
1378;SDS011;683;48.738;9.226;2022-10-28T13:25:57;7.10;;;4.43;;
1378;SDS011;683;48.738;9.226;2022-10-28T13:28:33;7.10;;;4.13;;
1378;SDS011;683;48.738;9.226;2022-10-28T13:31:07;8.80;;;4.80;;
1378;SDS011;683;48.738;9.226;2022-10-28T13:33:35;7.00;;;4.30;;
1378;SDS011;683;48.738;9.226;2022-10-28T13:36:15;8.97;;;4.10;;
1378;SDS011;683;48.738;9.226;2022-10-28T13:38:50;8.60;;;4.33;;
1378;SDS011;683;48.738;9.226;2022-10-28T13:41:27;9.67;;;4.07;;
1378;SDS011;683;48.738;9.226;2022-10-28T13:56:09;6.83;;;3.87;;
1378;SDS011;683;48.738;9.226;2022-10-28T13:58:50;9.77;;;5.43;;
1378;SDS011;683;48.738;9.226;2022-10-28T14:04:20;13.27;;;5.20;;
1378;SDS011;683;48.738;9.226;2022-10-28T14:07:04;8.13;;;4.40;;
1378;SDS011;683;48.738;9.226;2022-10-28T14:09:48;8.77;;;4.07;;
1378;SDS011;683;48.738;9.226;2022-10-28T14:12:23;8.70;;;4.60;;
1378;SDS011;683;48.738;9.226;2022-10-28T14:17:47;12.13;;;4.57;;
1378;SDS011;683;48.738;9.226;2022-10-28T14:20:22;12.33;;;5.57;;
1378;SDS011;683;48.738;9.226;2022-10-28T14:22:54;10.53;;;4.30;;
1378;SDS011;683;48.738;9.226;2022-10-28T14:28:52;9.30;;;4.57;;
1378;SDS011;683;48.738;9.226;2022-10-28T14:31:32;5.73;;;3.90;;
1378;SDS011;683;48.738;9.226;2022-10-28T14:37:09;13.53;;;5.13;;
1378;SDS011;683;48.738;9.226;2022-10-28T14:43:05;7.50;;;3.80;;
1378;SDS011;683;48.738;9.226;2022-10-28T14:45:46;7.40;;;4.60;;
1378;SDS011;683;48.738;9.226;2022-10-28T14:51:13;9.00;;;4.43;;
1378;SDS011;683;48.738;9.226;2022-10-28T14:53:42;9.00;;;4.47;;
1378;SDS011;683;48.738;9.226;2022-10-28T14:56:15;13.40;;;5.90;;
1378;SDS011;683;48.738;9.226;2022-10-28T14:58:47;12.50;;;5.50;;
1378;SDS011;683;48.738;9.226;2022-10-28T15:01:22;11.57;;;4.67;;
1378;SDS011;683;48.738;9.226;2022-10-28T15:03:53;6.53;;;4.20;;
1378;SDS011;683;48.738;9.226;2022-10-28T15:06:32;12.23;;;4.60;;
1378;SDS011;683;48.738;9.226;2022-10-28T15:09:05;21.27;;;5.03;;
1378;SDS011;683;48.738;9.226;2022-10-28T15:11:39;11.20;;;5.17;;
1378;SDS011;683;48.738;9.226;2022-10-28T15:14:12;8.03;;;4.90;;
1378;SDS011;683;48.738;9.226;2022-10-28T15:16:45;13.43;;;4.70;;
1378;SDS011;683;48.738;9.226;2022-10-28T15:19:14;7.27;;;4.00;;
1378;SDS011;683;48.738;9.226;2022-10-28T15:21:59;6.70;;;3.80;;
1378;SDS011;683;48.738;9.226;2022-10-28T15:24:50;11.53;;;5.30;;
1378;SDS011;683;48.738;9.226;2022-10-28T15:27:19;5.70;;;3.77;;
1378;SDS011;683;48.738;9.226;2022-10-28T15:29:48;10.43;;;4.60;;
1378;SDS011;683;48.738;9.226;2022-10-28T15:32:26;6.93;;;5.33;;
1378;SDS011;683;48.738;9.226;2022-10-28T15:34:55;6.43;;;4.10;;
1378;SDS011;683;48.738;9.226;2022-10-28T15:37:26;9.87;;;4.20;;
1378;SDS011;683;48.738;9.226;2022-10-28T15:40:09;10.30;;;4.80;;
1378;SDS011;683;48.738;9.226;2022-10-28T15:42:44;7.50;;;4.90;;
1378;SDS011;683;48.738;9.226;2022-10-28T15:45:19;14.47;;;5.80;;
1378;SDS011;683;48.738;9.226;2022-10-28T15:47:50;9.60;;;4.97;;
1378;SDS011;683;48.738;9.226;2022-10-28T15:50:28;9.00;;;3.60;;
1378;SDS011;683;48.738;9.226;2022-10-28T15:59:04;12.40;;;6.53;;
1378;SDS011;683;48.738;9.226;2022-10-28T16:01:40;9.90;;;5.60;;
1378;SDS011;683;48.738;9.226;2022-10-28T16:07:17;14.40;;;4.97;;
1378;SDS011;683;48.738;9.226;2022-10-28T16:09:46;10.20;;;4.67;;
1378;SDS011;683;48.738;9.226;2022-10-28T16:12:17;10.43;;;5.37;;
1378;SDS011;683;48.738;9.226;2022-10-28T16:14:47;5.83;;;4.40;;
1378;SDS011;683;48.738;9.226;2022-10-28T16:17:20;11.63;;;5.03;;
1378;SDS011;683;48.738;9.226;2022-10-28T16:19:52;8.40;;;4.70;;
1378;SDS011;683;48.738;9.226;2022-10-28T16:22:23;9.90;;;5.40;;
1378;SDS011;683;48.738;9.226;2022-10-28T16:24:53;6.73;;;3.93;;
1378;SDS011;683;48.738;9.226;2022-10-28T16:27:22;10.90;;;6.60;;
1378;SDS011;683;48.738;9.226;2022-10-28T16:29:51;9.03;;;5.47;;
1378;SDS011;683;48.738;9.226;2022-10-28T16:32:23;13.40;;;5.03;;
1378;SDS011;683;48.738;9.226;2022-10-28T16:34:54;6.90;;;5.17;;
1378;SDS011;683;48.738;9.226;2022-10-28T16:37:23;19.20;;;7.10;;
1378;SDS011;683;48.738;9.226;2022-10-28T16:39:54;15.70;;;6.00;;
1378;SDS011;683;48.738;9.226;2022-10-28T16:42:22;12.73;;;5.03;;
1378;SDS011;683;48.738;9.226;2022-10-28T16:44:50;14.93;;;5.10;;
1378;SDS011;683;48.738;9.226;2022-10-28T16:47:18;15.77;;;5.37;;
1378;SDS011;683;48.738;9.226;2022-10-28T16:49:50;10.57;;;5.53;;
1378;SDS011;683;48.738;9.226;2022-10-28T16:52:18;8.53;;;4.37;;
1378;SDS011;683;48.738;9.226;2022-10-28T16:54:48;15.93;;;5.30;;